createdAt,value
2023-03-14T00:03:04.029Z,93589.00
2023-03-14T00:07:04.017Z,93585.00
2023-03-14T00:11:04.055Z,93567.00
2023-03-14T00:15:04.082Z,93575.00
2023-03-14T00:19:04.071Z,93565.00
2023-03-14T00:23:04.094Z,93542.00
2023-03-14T00:27:04.145Z,93557.00
2023-03-14T00:31:04.186Z,93542.00
2023-03-14T00:35:04.144Z,93526.00
2023-03-14T00:39:04.172Z,93528.00
2023-03-14T00:43:04.166Z,93528.00
2023-03-14T00:47:04.237Z,93518.00
2023-03-14T00:51:04.306Z,93514.00
2023-03-14T00:55:04.265Z,93495.00
2023-03-14T00:59:04.301Z,93530.00
2023-03-14T01:03:04.419Z,93510.00
2023-03-14T01:07:04.421Z,93479.00
2023-03-14T01:11:04.476Z,93493.00
2023-03-14T01:15:04.577Z,93504.00
2023-03-14T01:19:04.614Z,93489.00
2023-03-14T01:23:04.760Z,93485.00
2023-03-14T01:27:04.803Z,93471.00
2023-03-14T01:31:04.930Z,93481.00
2023-03-14T01:35:04.918Z,93452.00
2023-03-14T01:39:04.977Z,93457.00
2023-03-14T01:43:05.014Z,93457.00
2023-03-14T01:47:05.013Z,93440.00
2023-03-14T01:51:05.058Z,93426.00
2023-03-14T01:55:05.158Z,93434.00
2023-03-14T01:59:05.208Z,93442.00
2023-03-14T02:03:05.259Z,93438.00
2023-03-14T02:07:05.297Z,93452.00
2023-03-14T02:11:05.343Z,93422.00
2023-03-14T02:15:05.422Z,93428.00
2023-03-14T02:19:05.458Z,93434.00
2023-03-14T02:23:05.472Z,93438.00
2023-03-14T02:27:05.534Z,93434.00
2023-03-14T02:31:05.626Z,93434.00
2023-03-14T02:35:05.662Z,93444.00
2023-03-14T02:39:05.721Z,93453.00
2023-03-14T02:43:05.745Z,93455.00
2023-03-14T02:47:05.801Z,93459.00
2023-03-14T02:51:05.871Z,93452.00
2023-03-14T02:55:05.830Z,93455.00
2023-03-14T02:59:05.802Z,93459.00
2023-03-14T03:03:05.824Z,93463.00
2023-03-14T03:07:05.701Z,93475.00
2023-03-14T03:11:05.654Z,93483.00
2023-03-14T03:15:05.646Z,93489.00
2023-03-14T03:19:05.592Z,93491.00
2023-03-14T03:23:05.572Z,93487.00
2023-03-14T03:27:05.543Z,93487.00
2023-03-14T03:31:05.555Z,93499.00
2023-03-14T03:35:05.470Z,93499.00
2023-03-14T03:39:05.445Z,93504.00
2023-03-14T03:43:05.377Z,93516.00
2023-03-14T03:47:05.340Z,93528.00
2023-03-14T03:51:05.338Z,93530.00
2023-03-14T03:55:05.252Z,93526.00
2023-03-14T03:59:05.232Z,93522.00
2023-03-14T04:03:05.213Z,93522.00
2023-03-14T04:07:05.171Z,93526.00
2023-03-14T04:11:05.125Z,93518.00
2023-03-14T04:15:05.105Z,93516.00
2023-03-14T04:19:05.085Z,93530.00
2023-03-14T04:23:05.133Z,93528.00
2023-03-14T04:27:05.202Z,93534.00
2023-03-14T04:31:05.362Z,93542.00
2023-03-14T04:35:05.349Z,93551.00
2023-03-14T04:39:05.517Z,93547.00
2023-03-14T04:43:05.505Z,93536.00
2023-03-14T04:47:05.575Z,93547.00
2023-03-14T04:51:05.626Z,93547.00
2023-03-14T04:55:05.770Z,93540.00
2023-03-14T04:59:05.803Z,93536.00
2023-03-14T05:03:05.941Z,93530.00
2023-03-14T05:07:05.938Z,93516.00
2023-03-14T05:11:05.988Z,93510.00
2023-03-14T05:15:06.105Z,93500.00
2023-03-14T05:19:06.204Z,93479.00
2023-03-14T05:23:06.235Z,93479.00
2023-03-14T05:27:06.289Z,93469.00
2023-03-14T05:31:06.397Z,93473.00
2023-03-14T05:35:06.434Z,93481.00
2023-03-14T05:39:06.550Z,93471.00
2023-03-14T05:43:06.594Z,93471.00
2023-03-14T05:47:06.695Z,93467.00
2023-03-14T05:51:06.752Z,93469.00
2023-03-14T05:55:06.836Z,93455.00
2023-03-14T05:59:06.950Z,93436.00
2023-03-14T06:03:07.763Z,93430.00
2023-03-14T06:07:07.106Z,93426.00
2023-03-14T06:11:07.195Z,93426.00
2023-03-14T06:15:07.368Z,93422.00
2023-03-14T06:19:07.395Z,93424.00
2023-03-14T06:23:07.447Z,93422.00
2023-03-14T06:27:07.520Z,93424.00
2023-03-14T06:31:07.609Z,93424.00
2023-03-14T06:35:07.669Z,93428.00
2023-03-14T06:39:08.215Z,93426.00
2023-03-14T06:43:07.847Z,93436.00
2023-03-14T06:47:08.195Z,93452.00
2023-03-14T06:51:08.193Z,93459.00
2023-03-14T06:55:08.010Z,93467.00
2023-03-14T06:59:08.201Z,93467.00
2023-03-14T07:03:08.294Z,93469.00
2023-03-14T07:07:08.696Z,93471.00
2023-03-14T07:11:08.256Z,93471.00
2023-03-14T07:15:18.073Z,93473.00
2023-03-14T07:19:09.329Z,93471.00
2023-03-14T07:23:08.354Z,93475.00
2023-03-14T07:27:10.485Z,93479.00
2023-03-14T07:31:08.418Z,93479.00
2023-03-14T07:35:08.702Z,93479.00
2023-03-14T07:39:08.309Z,93481.00
2023-03-14T07:43:08.286Z,93485.00
2023-03-14T07:47:08.251Z,93483.00
2023-03-14T07:51:08.276Z,93477.00
2023-03-14T07:55:08.215Z,93475.00
2023-03-14T07:59:08.163Z,93477.00
2023-03-14T08:03:08.135Z,93475.00
2023-03-14T08:07:08.072Z,93475.00
2023-03-14T08:11:08.037Z,93465.00
2023-03-14T08:15:07.986Z,93471.00
2023-03-14T08:19:07.964Z,93469.00
2023-03-14T08:23:07.901Z,93473.00
2023-03-14T08:27:10.517Z,93467.00
2023-03-14T08:31:07.919Z,93469.00
2023-03-14T08:35:07.809Z,93471.00
2023-03-14T08:39:07.833Z,93469.00
2023-03-14T08:43:07.789Z,93465.00
2023-03-14T08:47:07.831Z,93469.00
2023-03-14T08:51:07.751Z,93471.00
2023-03-14T08:55:08.249Z,93471.00
2023-03-14T08:59:07.613Z,93471.00
2023-03-14T09:03:07.586Z,93473.00
2023-03-14T09:07:07.516Z,93479.00
2023-03-14T09:11:07.500Z,93477.00
2023-03-14T09:15:07.474Z,93483.00
2023-03-14T09:19:07.402Z,93485.00
2023-03-14T09:23:07.383Z,93502.00
2023-03-14T09:27:07.335Z,93508.00
2023-03-14T09:31:07.324Z,93510.00
2023-03-14T09:35:07.298Z,93512.00
2023-03-14T09:39:07.245Z,93497.00
2023-03-14T09:43:07.736Z,93506.00
2023-03-14T09:47:07.764Z,93516.00
2023-03-14T09:51:07.777Z,93520.00
2023-03-14T09:55:07.983Z,93522.00
2023-03-14T09:59:07.777Z,93528.00
2023-03-14T10:03:08.260Z,93532.00
2023-03-14T10:07:08.161Z,93540.00
2023-03-14T10:11:08.371Z,93546.00
2023-03-14T10:15:08.726Z,93546.00
2023-03-14T10:19:08.560Z,93542.00
2023-03-14T10:23:08.517Z,93536.00
2023-03-14T10:27:08.474Z,93534.00
2023-03-14T10:31:08.516Z,93530.00
2023-03-14T10:35:08.791Z,93526.00
2023-03-14T10:39:08.424Z,93526.00
2023-03-14T10:43:08.771Z,93520.00
2023-03-14T10:47:08.324Z,93516.00
2023-03-14T10:51:08.803Z,93522.00
2023-03-14T10:55:08.271Z,93522.00
2023-03-14T10:59:08.273Z,93518.00
2023-03-14T11:03:08.151Z,93518.00
2023-03-14T11:07:08.321Z,93514.00
2023-03-14T11:11:08.492Z,93502.00
2023-03-14T11:15:08.598Z,93495.00
2023-03-14T11:19:08.804Z,93497.00
2023-03-14T11:23:08.914Z,93491.00
2023-03-14T11:27:09.084Z,93483.00
2023-03-14T11:31:09.276Z,93471.00
2023-03-14T11:35:09.803Z,93461.00
2023-03-14T11:39:09.571Z,93459.00
2023-03-14T11:43:09.793Z,93461.00
2023-03-14T11:47:09.866Z,93448.00
2023-03-14T11:51:10.291Z,93444.00
2023-03-14T11:55:10.135Z,93438.00
2023-03-14T11:59:10.257Z,93432.00
2023-03-14T12:03:10.387Z,93426.00
2023-03-14T12:07:10.796Z,93424.00
2023-03-14T12:11:10.552Z,93422.00
2023-03-14T12:15:10.698Z,93422.00
2023-03-14T12:19:10.772Z,93426.00
2023-03-14T12:23:10.874Z,93426.00
2023-03-14T12:27:10.997Z,93426.00
2023-03-14T12:31:11.312Z,93428.00
2023-03-14T12:35:11.311Z,93430.00
2023-03-14T12:39:11.297Z,93430.00
2023-03-14T12:43:11.231Z,93430.00
2023-03-14T12:47:11.358Z,93432.00
2023-03-14T12:51:11.466Z,93432.00
2023-03-14T12:55:11.811Z,93428.00
2023-03-14T12:59:11.577Z,93416.00
2023-03-14T13:03:11.610Z,93416.00
2023-03-14T13:07:11.838Z,93420.00
2023-03-14T13:11:11.694Z,93420.00
2023-03-14T13:15:11.858Z,93426.00
2023-03-14T13:19:11.645Z,93428.00
2023-03-14T13:23:11.728Z,93428.00
2023-03-14T13:27:12.365Z,93430.00
2023-03-14T13:31:12.004Z,93436.00
2023-03-14T13:35:12.130Z,93436.00
2023-03-14T13:39:12.301Z,93436.00
2023-03-14T13:43:12.918Z,93442.00
2023-03-14T13:47:12.694Z,93448.00
2023-03-14T13:51:12.733Z,93455.00
2023-03-14T13:55:12.654Z,93475.00
2023-03-14T13:59:12.557Z,93495.00
2023-03-14T14:03:12.821Z,93491.00
2023-03-14T14:07:12.516Z,93508.00
2023-03-14T14:11:12.527Z,93495.00
2023-03-14T14:15:12.428Z,93495.00
2023-03-14T14:19:12.824Z,93499.00
2023-03-14T14:23:12.393Z,93500.00
2023-03-14T14:27:12.475Z,93500.00
2023-03-14T14:31:12.439Z,93510.00
2023-03-14T14:35:12.593Z,93524.00
2023-03-14T14:39:12.783Z,93532.00
2023-03-14T14:43:12.974Z,93540.00
2023-03-14T14:47:12.910Z,93544.00
2023-03-14T14:51:12.904Z,93551.00
2023-03-14T14:55:13.370Z,93571.00
2023-03-14T14:59:12.817Z,93583.00
2023-03-14T15:03:12.856Z,93579.00
2023-03-14T15:07:12.748Z,93599.00
2023-03-14T15:11:12.750Z,93601.00
2023-03-14T15:15:12.849Z,93595.00
2023-03-14T15:19:23.497Z,93597.00
2023-03-14T15:23:13.598Z,93587.00
2023-03-14T15:27:12.598Z,93587.00
2023-03-14T15:31:12.639Z,93595.00
2023-03-14T15:35:12.728Z,93606.00
2023-03-14T15:39:12.768Z,93597.00
2023-03-14T15:43:12.856Z,93602.00
2023-03-14T15:47:12.958Z,93608.00
2023-03-14T15:51:13.065Z,93636.00
2023-03-14T15:55:13.167Z,93641.00
2023-03-14T15:59:13.239Z,93643.00
2023-03-14T16:03:13.295Z,93643.00
2023-03-14T16:07:13.401Z,93653.00
2023-03-14T16:11:13.438Z,93659.00
2023-03-14T16:15:13.527Z,93659.00
2023-03-14T16:19:13.657Z,93671.00
2023-03-14T16:23:13.710Z,93669.00
2023-03-14T16:27:13.705Z,93677.00
2023-03-14T16:31:13.765Z,93681.00
2023-03-14T16:35:13.763Z,93694.00
2023-03-14T16:39:13.865Z,93702.00
2023-03-14T16:43:16.405Z,93716.00
2023-03-14T16:47:13.896Z,93720.00
2023-03-14T16:51:13.808Z,93726.00
2023-03-14T16:55:13.824Z,93730.00
2023-03-14T17:03:13.735Z,93753.00
2023-03-14T17:07:13.709Z,93765.00
2023-03-14T17:11:13.644Z,93792.00
2023-03-14T17:15:13.631Z,93788.00
2023-03-14T17:19:13.598Z,93794.00
2023-03-14T17:23:13.544Z,93798.00
2023-03-14T17:27:13.523Z,93812.00
2023-03-14T17:31:13.548Z,93834.00
2023-03-14T17:35:13.415Z,93845.00
2023-03-14T17:39:13.431Z,93855.00
2023-03-14T17:43:13.390Z,93888.00
2023-03-14T17:47:13.342Z,93908.00
2023-03-14T17:51:13.307Z,93926.00
2023-03-14T17:55:13.298Z,93929.00
2023-03-14T17:59:13.223Z,93937.00
2023-03-14T18:03:13.165Z,93953.00
2023-03-14T18:07:13.147Z,93959.00
2023-03-14T18:11:13.237Z,93980.00
2023-03-14T18:15:13.072Z,93990.00
2023-03-14T18:19:13.059Z,93976.00
2023-03-14T18:23:13.022Z,93998.00
2023-03-14T18:27:12.978Z,94010.00
2023-03-14T18:31:13.279Z,94016.00
2023-03-14T18:35:13.456Z,94016.00
2023-03-14T18:39:13.049Z,94018.00
2023-03-14T18:43:13.247Z,94012.00
2023-03-14T18:47:13.521Z,94026.00
2023-03-14T18:51:13.411Z,94029.00
2023-03-14T18:55:13.396Z,94039.00
2023-03-14T18:59:13.355Z,94039.00
2023-03-14T19:03:13.329Z,94047.00
2023-03-14T19:07:13.251Z,94055.00
2023-03-14T19:11:13.248Z,94049.00
2023-03-14T19:15:13.191Z,94053.00
2023-03-14T19:19:13.238Z,94057.00
2023-03-14T19:23:13.131Z,94057.00
2023-03-14T19:27:13.100Z,94059.00
2023-03-14T19:31:13.094Z,94063.00
2023-03-14T19:35:12.988Z,94067.00
2023-03-14T19:39:12.950Z,94067.00
2023-03-14T19:43:12.944Z,94069.00
2023-03-14T19:47:12.878Z,94073.00
2023-03-14T19:51:12.858Z,94084.00
2023-03-14T19:55:12.866Z,94098.00
2023-03-14T19:59:12.795Z,94098.00
2023-03-14T20:03:12.781Z,94086.00
2023-03-14T20:07:12.940Z,94096.00
2023-03-14T20:11:13.090Z,94108.00
2023-03-14T20:15:13.183Z,94120.00
2023-03-14T20:19:13.300Z,94135.00
2023-03-14T20:23:13.446Z,94131.00
2023-03-14T20:27:13.612Z,94133.00
2023-03-14T20:31:13.730Z,94143.00
2023-03-14T20:35:13.862Z,94145.00
2023-03-14T20:39:14.163Z,94147.00
2023-03-14T20:43:14.093Z,94149.00
2023-03-14T20:47:14.209Z,94151.00
2023-03-14T20:51:14.346Z,94151.00
2023-03-14T20:55:14.457Z,94159.00
2023-03-14T20:59:14.560Z,94167.00
2023-03-14T21:03:14.742Z,94176.00
2023-03-14T21:07:14.866Z,94172.00
2023-03-14T21:11:14.959Z,94172.00
2023-03-14T21:15:15.127Z,94168.00
2023-03-14T21:19:15.300Z,94168.00
2023-03-14T21:23:17.832Z,94174.00
2023-03-14T21:27:15.433Z,94174.00
2023-03-14T21:31:15.455Z,94172.00
2023-03-14T21:35:15.332Z,94180.00
2023-03-14T21:39:15.312Z,94180.00
2023-03-14T21:43:15.254Z,94186.00
2023-03-14T21:47:15.237Z,94188.00
2023-03-14T21:51:15.202Z,94192.00
2023-03-14T21:55:15.137Z,94196.00
2023-03-14T21:59:15.131Z,94200.00
2023-03-14T22:03:15.140Z,94214.00
2023-03-14T22:07:17.320Z,94223.00
2023-03-14T22:11:15.183Z,94225.00
2023-03-14T22:15:15.177Z,94229.00
2023-03-14T22:19:15.084Z,94233.00
2023-03-14T22:23:15.089Z,94233.00
2023-03-14T22:27:15.010Z,94241.00
2023-03-14T22:31:15.095Z,94241.00
2023-03-14T22:35:14.955Z,94243.00
2023-03-14T22:39:14.946Z,94235.00
2023-03-14T22:43:14.864Z,94247.00
2023-03-14T22:47:14.827Z,94251.00
2023-03-14T22:51:14.775Z,94259.00
2023-03-14T22:55:14.753Z,94257.00
2023-03-14T22:59:15.225Z,94253.00
2023-03-14T23:03:14.726Z,94263.00
2023-03-14T23:07:14.654Z,94265.00
2023-03-14T23:11:14.642Z,94272.00
2023-03-14T23:15:14.595Z,94280.00
2023-03-14T23:19:14.543Z,94282.00
2023-03-14T23:23:14.481Z,94282.00
2023-03-14T23:27:14.497Z,94282.00
2023-03-14T23:31:14.534Z,94280.00
2023-03-14T23:35:14.404Z,94284.00
2023-03-14T23:39:14.337Z,94278.00
2023-03-14T23:43:14.329Z,94282.00
2023-03-14T23:47:14.336Z,94290.00
2023-03-14T23:51:14.366Z,94300.00
2023-03-14T23:55:14.302Z,94300.00
2023-03-14T23:59:14.297Z,94296.00
